Mattituck, NY (11952)

8:29 AM EDT on August 04, 2015 (GMT -0400)
Mattituck | | Change Station
CLOSE
Current Station
Personal Weather Station
Location: Mattituck, NY
Elevation: 56 ft
Nearby Weather Stations

Elev 56 ft 41.01 °N, 72.53 °W | Updated 2 seconds ago

Mostly Cloudy
Mostly Cloudy
70.7 °F
Feels Like 70.7 °F
N
0.0
Wind Variable Wind from East
Gusts 0.0 mph

Today
High -- | Low -- °F
--% Chance of Precip.
Yesterday
High -- | Low -- °F
Precip. -- in
5:48 AM 8:03 PM
Waning Gibbous, 78% visible
Pressure 29.87 in
Visibility 10.0 miles
Clouds Few 10000 ft
Dew Point 70 °F
Humidity 96%
Rainfall 0.67 in
Snow Depth Not available.
UV 2 out of 12
Pollen 7.40 out of 12
Air Quality Not available.
Flu Activity Not available.
METAR KFOK 041153Z AUTO 21007KT 10SM FEW100 24/19 A2987 RMK AO2 SLP115 60000 T02440194 10250 20217 58006 TSNO

More Conditions Fewer Conditions

Pressure 29.87 in
Visibility 10.0 miles
Clouds Few 10000 ft
Dew Point 70 °F
Humidity 96%
Rainfall 0.67 in
Snow Depth Not available.
UV 2 out of 12
Pollen 7.40 out of 12
Air Quality Not available.
Flu Activity Not available.
METAR KFOK 041153Z AUTO 21007KT 10SM FEW100 24/19 A2987 RMK AO2 SLP115 60000 T02440194 10250 20217 58006 TSNO

More Conditions Fewer Conditions

10-Day Weather Forecast

×

Almanac

Astronomy

Aug. 04, 2015 Rise Set
Actual Time
Civil Twilight
Nautical Twilight
Astronomical Twilight
Moon
Length of Visible Light
Length of Day
Tomorrow will be .
, % of the Moon is Illuminated

Today's Extremes

State Highs State Lows

Community

WunderPhotos

Upload Photos

1,843,910 photos uploaded!

WunderBlogs® & News

Nearby

Air Quality

  Air Quality AQ Index Pollutant
Not available.

Snow Depth

Station Depth Elevation

Earthquake Activity

City Distance Mag. Time & Date
Minimum magnitude displayed is 2.5.

Coastal Water Temperatures

Place Temperature

Stations

Nearby Weather Stations

Station Location Temp. Windchill Dew Point Humidity Wind Precip. Elev Updated Type